1974 FIFI (1974258N15295)


On this page: IBTrACS data - Map and Plots - Positions - Intensities - Original source data

Summary

Start Sep 14
End Sep 22
Basins EP
NA
LMI 95 kt
Sources hurdat_atl
atcf
In WMO? Yes
Related storms 1974264N16263
Previous storm 1974 MISSING (WP)
Previous in basin 1974 ELAINE (NA)
Concurrent storms 1974 VIRGINIA (WP)
1974 MISSING (WP)
1974 FIFI (NA)
1974 WENDY (WP)
1974 MISSING (NA)
1974 07A (NI)
1974 ORLENE (EP)
1974 AGNES (WP)
Next in basin 1974 MISSING (NA)
Next storm 1974 WENDY (WP)

top of page IBTrACS Data: File Access

No storm imagery available

top of page Plots:

Map of storm track will not appear if FTP is down
Time series of cyclone Maximum Sustained Wind will not appear if FTP is down
Time series of cyclone Minimum Central Pressure will not appear if FTP is down

top of page Track Data:Position

hurdat_atl atcf
Date Lat Lon Lat Lon
1974-09-14 12:00:00 15.3 -65.0 15.3 -65.0
1974-09-14 18:00:00 15.7 -66.5 15.7 -66.5
1974-09-15 00:00:00 16.0 -68.0 16.0 -68.0
1974-09-15 06:00:00 16.3 -69.5 16.3 -69.5
1974-09-15 12:00:00 16.5 -71.0 16.5 -71.0
1974-09-15 18:00:00 16.8 -72.5 16.8 -72.5
1974-09-16 00:00:00 17.0 -74.0 17.0 -74.0
1974-09-16 06:00:00 17.0 -75.5 17.0 -75.5
1974-09-16 12:00:00 17.0 -77.0 17.0 -77.0
1974-09-16 18:00:00 17.0 -77.8 17.0 -77.8
1974-09-17 00:00:00 17.0 -78.7 17.0 -78.7
1974-09-17 06:00:00 16.9 -79.5 16.9 -79.5
1974-09-17 12:00:00 16.6 -80.2 16.6 -80.2
1974-09-17 18:00:00 16.4 -81.0 16.4 -81.0
1974-09-18 00:00:00 16.3 -81.7 16.3 -81.7
1974-09-18 06:00:00 16.3 -82.4 16.3 -82.4
1974-09-18 12:00:00 16.3 -83.5 16.3 -83.5
1974-09-18 18:00:00 16.3 -84.7 16.3 -84.7
1974-09-19 00:00:00 16.2 -85.7 16.2 -85.7
1974-09-19 06:00:00 16.1 -86.6 16.1 -86.6
1974-09-19 12:00:00 16.1 -87.5 16.1 -87.5
1974-09-19 18:00:00 16.3 -88.2 16.3 -88.2
1974-09-20 00:00:00 16.7 -89.2 16.7 -89.2
1974-09-20 06:00:00 16.8 -90.5 16.8 -90.5
1974-09-20 12:00:00 16.9 -92.0 16.9 -92.0
hurdat_atl atcf
1974-09-20 18:00:00 17.0 -93.5 17.0 -93.5
1974-09-21 00:00:00 17.2 -95.0 17.2 -95.0
1974-09-21 06:00:00 17.5 -97.1 17.5 -97.1
1974-09-21 12:00:00 17.5 -99.0 17.5 -99.0
1974-09-21 18:00:00 17.6 -99.8 17.6 -99.8
1974-09-22 00:00:00 17.5 -101.0 17.5 -101.0
1974-09-22 06:00:00 17.7 -102.5 17.7 -102.5
1974-09-22 12:00:00 17.7 -104.3 17.7 -104.3

top of pageTrack Data:Intensity

hurdat_atl atcf
Date Wind Pres Wind Pres
1974-09-14 12:00:00 30. 30.
1974-09-14 18:00:00 30. 30.
1974-09-15 00:00:00 30. 30.
1974-09-15 06:00:00 30. 30.
1974-09-15 12:00:00 30. 30.
1974-09-15 18:00:00 30. 30.
1974-09-16 00:00:00 30. 30.
1974-09-16 06:00:00 30. 30.
1974-09-16 12:00:00 30. 30.
1974-09-16 18:00:00 35. 1005. 35. 1005.
1974-09-17 00:00:00 50. 50.
1974-09-17 06:00:00 60. 993. 60. 993.
1974-09-17 12:00:00 70. 70.
1974-09-17 18:00:00 75. 75.
1974-09-18 00:00:00 80. 80.
1974-09-18 06:00:00 85. 977. 85. 977.
1974-09-18 12:00:00 90. 90.
1974-09-18 18:00:00 95. 95.
1974-09-19 00:00:00 95. 95.
1974-09-19 06:00:00 95. 95.
1974-09-19 12:00:00 95. 971. 95. 971.
1974-09-19 18:00:00 90. 90.
1974-09-20 00:00:00 60. 60.
1974-09-20 06:00:00 60. 60.
1974-09-20 12:00:00 45. 45.
hurdat_atl atcf
1974-09-20 18:00:00 30. 30.
1974-09-21 00:00:00 30. 30.
1974-09-21 06:00:00 30. 30.
1974-09-21 12:00:00 30. 30.
1974-09-21 18:00:00 30. 30.
1974-09-22 00:00:00 35. 35.
1974-09-22 06:00:00 35. 35.
1974-09-22 12:00:00 35. 35.

top of page Links to source data

Source Source file Format
hurdat_atl tracks1851to2011.txt:1025:FIFI HURDAT
atcf bal141974.dat ATCF